sensor_id;sensor_type;location;lat;lon;timestamp;pressure;altitude;pressure_sealevel;temperature;humidity
77323;BME280;66384;51.052;9.850;2024-02-21T00:00:48;99264.65;;;7.04;73.65
77323;BME280;66384;51.052;9.850;2024-02-21T00:03:45;99252.58;;;7.05;73.69
77323;BME280;66384;51.052;9.850;2024-02-21T00:06:21;99240.94;;;7.05;73.59
77323;BME280;66384;51.052;9.850;2024-02-21T00:08:59;99255.51;;;7.06;73.50
77323;BME280;66384;51.052;9.850;2024-02-21T00:11:36;99257.22;;;7.06;73.57
77323;BME280;66384;51.052;9.850;2024-02-21T00:14:13;99247.44;;;7.05;73.53
77323;BME280;66384;51.052;9.850;2024-02-21T00:16:49;99251.08;;;7.06;73.59
77323;BME280;66384;51.052;9.850;2024-02-21T00:19:26;99245.11;;;7.06;73.67
77323;BME280;66384;51.052;9.850;2024-02-21T00:22:03;99239.30;;;7.07;73.75
77323;BME280;66384;51.052;9.850;2024-02-21T00:24:40;99234.64;;;7.06;74.27
77323;BME280;66384;51.052;9.850;2024-02-21T00:27:16;99229.75;;;7.04;74.73
77323;BME280;66384;51.052;9.850;2024-02-21T00:29:53;99231.06;;;7.02;75.09
77323;BME280;66384;51.052;9.850;2024-02-21T00:32:29;99224.20;;;7.02;75.68
77323;BME280;66384;51.052;9.850;2024-02-21T00:35:08;99221.54;;;7.00;75.96
77323;BME280;66384;51.052;9.850;2024-02-21T00:37:46;99224.56;;;6.99;76.10
77323;BME280;66384;51.052;9.850;2024-02-21T00:40:22;99221.52;;;6.96;76.32
77323;BME280;66384;51.052;9.850;2024-02-21T00:42:59;99213.87;;;6.94;76.61
77323;BME280;66384;51.052;9.850;2024-02-21T00:45:36;99217.20;;;6.92;76.76
77323;BME280;66384;51.052;9.850;2024-02-21T00:48:13;99217.75;;;6.89;77.06
77323;BME280;66384;51.052;9.850;2024-02-21T00:50:49;99212.27;;;6.89;77.16
77323;BME280;66384;51.052;9.850;2024-02-21T00:53:26;99210.62;;;6.87;77.43
77323;BME280;66384;51.052;9.850;2024-02-21T00:56:02;99217.48;;;6.83;77.58
77323;BME280;66384;51.052;9.850;2024-02-21T00:58:39;99217.69;;;6.80;77.66
77323;BME280;66384;51.052;9.850;2024-02-21T01:01:23;99225.66;;;6.79;77.86
77323;BME280;66384;51.052;9.850;2024-02-21T01:04:00;99221.15;;;6.78;78.16
77323;BME280;66384;51.052;9.850;2024-02-21T01:06:37;99219.90;;;6.77;78.18
77323;BME280;66384;51.052;9.850;2024-02-21T01:09:16;99219.57;;;6.77;78.18
77323;BME280;66384;51.052;9.850;2024-02-21T01:11:52;99224.24;;;6.78;78.33
77323;BME280;66384;51.052;9.850;2024-02-21T01:14:29;99227.11;;;6.78;78.35
77323;BME280;66384;51.052;9.850;2024-02-21T01:17:05;99231.41;;;6.78;78.43
77323;BME280;66384;51.052;9.850;2024-02-21T01:19:42;99233.66;;;6.79;78.48
77323;BME280;66384;51.052;9.850;2024-02-21T01:22:19;99231.14;;;6.80;78.47
77323;BME280;66384;51.052;9.850;2024-02-21T01:24:55;99233.11;;;6.81;78.59
77323;BME280;66384;51.052;9.850;2024-02-21T01:27:32;99235.90;;;6.82;78.74
77323;BME280;66384;51.052;9.850;2024-02-21T01:30:10;99233.50;;;6.86;78.94
77323;BME280;66384;51.052;9.850;2024-02-21T01:32:47;99231.55;;;6.88;78.89
77323;BME280;66384;51.052;9.850;2024-02-21T01:35:24;99233.48;;;6.89;78.74
77323;BME280;66384;51.052;9.850;2024-02-21T01:38:00;99228.18;;;6.89;78.86
77323;BME280;66384;51.052;9.850;2024-02-21T01:40:38;99222.73;;;6.90;78.89
77323;BME280;66384;51.052;9.850;2024-02-21T01:43:21;99217.59;;;6.89;78.96
77323;BME280;66384;51.052;9.850;2024-02-21T01:45:59;99214.24;;;6.87;78.91
77323;BME280;66384;51.052;9.850;2024-02-21T01:48:32;99208.89;;;6.87;79.14
77323;BME280;66384;51.052;9.850;2024-02-21T01:51:22;99207.20;;;6.87;79.05
77323;BME280;66384;51.052;9.850;2024-02-21T01:54:12;99196.06;;;6.87;79.14
77323;BME280;66384;51.052;9.850;2024-02-21T01:56:50;99192.46;;;6.86;79.13
77323;BME280;66384;51.052;9.850;2024-02-21T01:59:26;99194.47;;;6.85;79.24
77323;BME280;66384;51.052;9.850;2024-02-21T02:02:03;99193.40;;;6.83;79.34
77323;BME280;66384;51.052;9.850;2024-02-21T02:04:40;99190.06;;;6.82;79.44
77323;BME280;66384;51.052;9.850;2024-02-21T02:10:08;99183.60;;;6.79;79.63
77323;BME280;66384;51.052;9.850;2024-02-21T02:12:45;99185.23;;;6.78;79.78
77323;BME280;66384;51.052;9.850;2024-02-21T02:15:21;99179.48;;;6.75;79.75
77323;BME280;66384;51.052;9.850;2024-02-21T02:17:57;99184.79;;;6.75;79.79
77323;BME280;66384;51.052;9.850;2024-02-21T02:20:34;99178.61;;;6.75;80.01
77323;BME280;66384;51.052;9.850;2024-02-21T02:25:49;99181.27;;;6.74;80.00
77323;BME280;66384;51.052;9.850;2024-02-21T02:28:27;99176.96;;;6.73;80.10
77323;BME280;66384;51.052;9.850;2024-02-21T02:31:03;99169.40;;;6.72;80.27
77323;BME280;66384;51.052;9.850;2024-02-21T02:33:39;99162.66;;;6.71;80.23
77323;BME280;66384;51.052;9.850;2024-02-21T02:36:18;99156.39;;;6.72;80.31
77323;BME280;66384;51.052;9.850;2024-02-21T02:38:55;99151.13;;;6.72;80.36
77323;BME280;66384;51.052;9.850;2024-02-21T02:41:31;99144.45;;;6.72;80.34
77323;BME280;66384;51.052;9.850;2024-02-21T02:44:07;99132.27;;;6.72;80.60
77323;BME280;66384;51.052;9.850;2024-02-21T02:46:45;99124.52;;;6.70;80.64
77323;BME280;66384;51.052;9.850;2024-02-21T02:49:22;99128.03;;;6.68;80.73
77323;BME280;66384;51.052;9.850;2024-02-21T02:51:59;99122.83;;;6.67;80.81
77323;BME280;66384;51.052;9.850;2024-02-21T02:54:35;99118.96;;;6.68;80.69
77323;BME280;66384;51.052;9.850;2024-02-21T02:57:12;99110.98;;;6.69;80.69
77323;BME280;66384;51.052;9.850;2024-02-21T02:59:52;99103.48;;;6.70;80.56
77323;BME280;66384;51.052;9.850;2024-02-21T03:02:29;99095.98;;;6.70;80.71
77323;BME280;66384;51.052;9.850;2024-02-21T03:05:14;99090.79;;;6.72;80.75
77323;BME280;66384;51.052;9.850;2024-02-21T03:07:51;99096.48;;;6.74;80.69
77323;BME280;66384;51.052;9.850;2024-02-21T03:10:27;99084.20;;;6.74;80.59
77323;BME280;66384;51.052;9.850;2024-02-21T03:13:04;99077.55;;;6.74;80.61
77323;BME280;66384;51.052;9.850;2024-02-21T03:15:41;99081.11;;;6.74;80.73
77323;BME280;66384;51.052;9.850;2024-02-21T03:18:18;99088.25;;;6.73;80.66
77323;BME280;66384;51.052;9.850;2024-02-21T03:20:55;99079.67;;;6.72;80.66
77323;BME280;66384;51.052;9.850;2024-02-21T03:23:31;99077.27;;;6.72;80.76
77323;BME280;66384;51.052;9.850;2024-02-21T03:26:08;99070.95;;;6.72;80.56
77323;BME280;66384;51.052;9.850;2024-02-21T03:28:44;99080.86;;;6.72;80.73
77323;BME280;66384;51.052;9.850;2024-02-21T03:31:19;99085.67;;;6.73;81.03
77323;BME280;66384;51.052;9.850;2024-02-21T03:34:03;99088.08;;;6.73;80.93
77323;BME280;66384;51.052;9.850;2024-02-21T03:36:40;99082.11;;;6.74;80.88
77323;BME280;66384;51.052;9.850;2024-02-21T03:39:16;99073.73;;;6.77;81.06
77323;BME280;66384;51.052;9.850;2024-02-21T03:41:53;99070.39;;;6.78;81.01
77323;BME280;66384;51.052;9.850;2024-02-21T03:44:29;99067.71;;;6.80;80.93
77323;BME280;66384;51.052;9.850;2024-02-21T03:47:06;99067.25;;;6.80;80.94
77323;BME280;66384;51.052;9.850;2024-02-21T03:49:45;99070.02;;;6.81;80.79
77323;BME280;66384;51.052;9.850;2024-02-21T03:52:22;99065.20;;;6.81;80.79
77323;BME280;66384;51.052;9.850;2024-02-21T03:54:59;99071.98;;;6.80;80.75
77323;BME280;66384;51.052;9.850;2024-02-21T03:57:35;99070.23;;;6.79;80.76
77323;BME280;66384;51.052;9.850;2024-02-21T04:00:14;99065.96;;;6.79;80.75
77323;BME280;66384;51.052;9.850;2024-02-21T04:02:50;99066.27;;;6.78;80.90
77323;BME280;66384;51.052;9.850;2024-02-21T04:05:27;99066.72;;;6.77;80.87
77323;BME280;66384;51.052;9.850;2024-02-21T04:08:06;99065.52;;;6.76;81.06
77323;BME280;66384;51.052;9.850;2024-02-21T04:10:42;99071.33;;;6.76;80.95
77323;BME280;66384;51.052;9.850;2024-02-21T04:13:19;99076.44;;;6.76;81.15
77323;BME280;66384;51.052;9.850;2024-02-21T04:15:56;99074.05;;;6.76;81.26
77323;BME280;66384;51.052;9.850;2024-02-21T04:18:34;99070.99;;;6.76;81.14
77323;BME280;66384;51.052;9.850;2024-02-21T04:21:13;99072.08;;;6.78;81.24
77323;BME280;66384;51.052;9.850;2024-02-21T04:23:50;99069.86;;;6.78;81.22
77323;BME280;66384;51.052;9.850;2024-02-21T04:26:27;99067.67;;;6.79;81.30
77323;BME280;66384;51.052;9.850;2024-02-21T04:29:03;99064.78;;;6.79;81.34
77323;BME280;66384;51.052;9.850;2024-02-21T04:31:39;99058.44;;;6.79;81.32
77323;BME280;66384;51.052;9.850;2024-02-21T04:34:16;99049.36;;;6.78;81.15
77323;BME280;66384;51.052;9.850;2024-02-21T04:36:53;99048.83;;;6.78;81.16
77323;BME280;66384;51.052;9.850;2024-02-21T04:39:29;99056.35;;;6.78;81.28
77323;BME280;66384;51.052;9.850;2024-02-21T04:42:07;99051.77;;;6.79;81.38
77323;BME280;66384;51.052;9.850;2024-02-21T04:44:44;99048.08;;;6.80;81.14
77323;BME280;66384;51.052;9.850;2024-02-21T04:47:21;99051.54;;;6.81;81.16
77323;BME280;66384;51.052;9.850;2024-02-21T04:49:58;99059.16;;;6.80;81.25
77323;BME280;66384;51.052;9.850;2024-02-21T04:52:35;99054.52;;;6.79;81.30
77323;BME280;66384;51.052;9.850;2024-02-21T04:55:12;99047.32;;;6.79;81.26
77323;BME280;66384;51.052;9.850;2024-02-21T04:57:49;99034.29;;;6.78;81.32
77323;BME280;66384;51.052;9.850;2024-02-21T05:00:26;99029.34;;;6.78;81.19
77323;BME280;66384;51.052;9.850;2024-02-21T05:03:03;99020.11;;;6.78;81.34
77323;BME280;66384;51.052;9.850;2024-02-21T05:05:39;99012.59;;;6.78;81.36
77323;BME280;66384;51.052;9.850;2024-02-21T05:08:16;99003.74;;;6.75;81.33
77323;BME280;66384;51.052;9.850;2024-02-21T05:10:52;99001.84;;;6.75;81.37
77323;BME280;66384;51.052;9.850;2024-02-21T05:13:30;99009.19;;;6.75;81.29
77323;BME280;66384;51.052;9.850;2024-02-21T05:16:07;99000.77;;;6.74;81.26
77323;BME280;66384;51.052;9.850;2024-02-21T05:18:45;98991.38;;;6.74;81.39
77323;BME280;66384;51.052;9.850;2024-02-21T05:21:22;98990.45;;;6.76;81.53
77323;BME280;66384;51.052;9.850;2024-02-21T05:23:59;98995.98;;;6.77;81.20
77323;BME280;66384;51.052;9.850;2024-02-21T05:26:36;99007.16;;;6.79;81.17
77323;BME280;66384;51.052;9.850;2024-02-21T05:29:12;99007.02;;;6.80;81.13
77323;BME280;66384;51.052;9.850;2024-02-21T05:31:58;99011.10;;;6.79;80.95
77323;BME280;66384;51.052;9.850;2024-02-21T05:34:36;99008.55;;;6.80;80.95
77323;BME280;66384;51.052;9.850;2024-02-21T05:37:12;99008.26;;;6.80;80.90
77323;BME280;66384;51.052;9.850;2024-02-21T05:39:49;99003.65;;;6.80;80.90
77323;BME280;66384;51.052;9.850;2024-02-21T05:42:25;98999.91;;;6.81;80.85
77323;BME280;66384;51.052;9.850;2024-02-21T05:45:02;99008.30;;;6.81;80.78
77323;BME280;66384;51.052;9.850;2024-02-21T05:47:38;99009.45;;;6.80;80.58
77323;BME280;66384;51.052;9.850;2024-02-21T05:50:15;99020.73;;;6.80;80.58
77323;BME280;66384;51.052;9.850;2024-02-21T05:52:50;99033.20;;;6.80;80.53
77323;BME280;66384;51.052;9.850;2024-02-21T05:55:27;99036.23;;;6.79;80.79
77323;BME280;66384;51.052;9.850;2024-02-21T05:58:04;99041.34;;;6.79;80.68
77323;BME280;66384;51.052;9.850;2024-02-21T06:00:40;99028.86;;;6.79;80.75
77323;BME280;66384;51.052;9.850;2024-02-21T06:03:17;99028.02;;;6.79;80.78
77323;BME280;66384;51.052;9.850;2024-02-21T06:05:53;99029.91;;;6.79;80.62
77323;BME280;66384;51.052;9.850;2024-02-21T06:08:30;99027.68;;;6.79;80.44
77323;BME280;66384;51.052;9.850;2024-02-21T06:11:06;99035.73;;;6.80;80.48
77323;BME280;66384;51.052;9.850;2024-02-21T06:13:44;99041.03;;;6.79;80.40
77323;BME280;66384;51.052;9.850;2024-02-21T06:16:21;99037.74;;;6.78;80.17
77323;BME280;66384;51.052;9.850;2024-02-21T06:18:58;99032.55;;;6.77;80.33
77323;BME280;66384;51.052;9.850;2024-02-21T06:21:36;99030.69;;;6.77;80.33
77323;BME280;66384;51.052;9.850;2024-02-21T06:24:12;99029.81;;;6.77;80.04
77323;BME280;66384;51.052;9.850;2024-02-21T06:26:48;99036.46;;;6.77;80.18
77323;BME280;66384;51.052;9.850;2024-02-21T06:29:25;99032.81;;;6.75;80.20
77323;BME280;66384;51.052;9.850;2024-02-21T06:32:02;99028.36;;;6.75;79.93
77323;BME280;66384;51.052;9.850;2024-02-21T06:34:39;99022.17;;;6.74;79.83
77323;BME280;66384;51.052;9.850;2024-02-21T06:37:16;99022.73;;;6.75;79.66
77323;BME280;66384;51.052;9.850;2024-02-21T06:39:52;99027.05;;;6.77;79.69
77323;BME280;66384;51.052;9.850;2024-02-21T06:42:29;99023.88;;;6.78;79.70
77323;BME280;66384;51.052;9.850;2024-02-21T06:45:07;99027.48;;;6.78;79.52
77323;BME280;66384;51.052;9.850;2024-02-21T06:47:44;99015.52;;;6.79;79.61
77323;BME280;66384;51.052;9.850;2024-02-21T06:50:21;99006.70;;;6.80;79.32
77323;BME280;66384;51.052;9.850;2024-02-21T06:52:57;99007.30;;;6.82;79.40
77323;BME280;66384;51.052;9.850;2024-02-21T06:55:34;99005.30;;;6.83;79.34
77323;BME280;66384;51.052;9.850;2024-02-21T06:58:11;99009.09;;;6.83;78.83
77323;BME280;66384;51.052;9.850;2024-02-21T07:00:49;99009.36;;;6.82;78.91
77323;BME280;66384;51.052;9.850;2024-02-21T07:03:26;99009.71;;;6.83;78.62
77323;BME280;66384;51.052;9.850;2024-02-21T07:06:03;99013.50;;;6.83;78.83
77323;BME280;66384;51.052;9.850;2024-02-21T07:08:40;99020.77;;;6.85;78.75
77323;BME280;66384;51.052;9.850;2024-02-21T07:11:17;99023.60;;;6.87;78.66
77323;BME280;66384;51.052;9.850;2024-02-21T07:13:55;99024.41;;;6.90;78.78
77323;BME280;66384;51.052;9.850;2024-02-21T07:16:31;99026.80;;;6.93;78.46
77323;BME280;66384;51.052;9.850;2024-02-21T07:19:09;99020.89;;;6.95;78.40
77323;BME280;66384;51.052;9.850;2024-02-21T07:21:46;99017.78;;;6.98;78.36
77323;BME280;66384;51.052;9.850;2024-02-21T07:24:22;99011.88;;;7.00;78.34
77323;BME280;66384;51.052;9.850;2024-02-21T07:26:59;99004.71;;;7.04;78.38
77323;BME280;66384;51.052;9.850;2024-02-21T07:29:38;98999.92;;;7.08;78.36
77323;BME280;66384;51.052;9.850;2024-02-21T07:32:15;98996.78;;;7.11;77.90
77323;BME280;66384;51.052;9.850;2024-02-21T07:34:51;98996.77;;;7.10;78.03
77323;BME280;66384;51.052;9.850;2024-02-21T07:37:28;98999.40;;;7.12;78.05
77323;BME280;66384;51.052;9.850;2024-02-21T07:40:11;98996.95;;;7.14;78.06
77323;BME280;66384;51.052;9.850;2024-02-21T07:42:49;98993.48;;;7.17;78.09
77323;BME280;66384;51.052;9.850;2024-02-21T07:45:25;98989.19;;;7.20;77.80
77323;BME280;66384;51.052;9.850;2024-02-21T07:48:02;98986.17;;;7.22;77.72
77323;BME280;66384;51.052;9.850;2024-02-21T07:50:39;98981.95;;;7.23;77.72
77323;BME280;66384;51.052;9.850;2024-02-21T07:53:19;98981.61;;;7.23;77.41
77323;BME280;66384;51.052;9.850;2024-02-21T07:55:56;98974.11;;;7.24;77.46
77323;BME280;66384;51.052;9.850;2024-02-21T07:58:33;98970.98;;;7.27;77.53
77323;BME280;66384;51.052;9.850;2024-02-21T08:01:09;98969.91;;;7.29;77.19
77323;BME280;66384;51.052;9.850;2024-02-21T08:03:46;98967.98;;;7.33;77.23
77323;BME280;66384;51.052;9.850;2024-02-21T08:06:23;98968.77;;;7.34;77.11
77323;BME280;66384;51.052;9.850;2024-02-21T08:09:01;98976.21;;;7.37;77.18
77323;BME280;66384;51.052;9.850;2024-02-21T08:11:38;98970.33;;;7.39;77.15
77323;BME280;66384;51.052;9.850;2024-02-21T08:14:14;98968.90;;;7.42;76.86
77323;BME280;66384;51.052;9.850;2024-02-21T08:16:53;98969.03;;;7.45;76.60
77323;BME280;66384;51.052;9.850;2024-02-21T08:19:31;98970.39;;;7.49;76.55
77323;BME280;66384;51.052;9.850;2024-02-21T08:22:08;98968.48;;;7.52;76.31
77323;BME280;66384;51.052;9.850;2024-02-21T08:24:45;98967.55;;;7.54;75.97
77323;BME280;66384;51.052;9.850;2024-02-21T08:27:22;98960.11;;;7.57;75.79
77323;BME280;66384;51.052;9.850;2024-02-21T08:29:59;98957.77;;;7.58;76.10
77323;BME280;66384;51.052;9.850;2024-02-21T08:32:35;98963.39;;;7.61;75.59
77323;BME280;66384;51.052;9.850;2024-02-21T08:35:12;98962.95;;;7.63;75.39
77323;BME280;66384;51.052;9.850;2024-02-21T08:37:52;98948.19;;;7.66;75.73
77323;BME280;66384;51.052;9.850;2024-02-21T08:40:29;98944.92;;;7.74;75.78
77323;BME280;66384;51.052;9.850;2024-02-21T08:43:09;98937.47;;;7.80;75.39
77323;BME280;66384;51.052;9.850;2024-02-21T08:45:45;98934.55;;;7.85;75.13
77323;BME280;66384;51.052;9.850;2024-02-21T08:48:22;98934.73;;;7.88;75.00
77323;BME280;66384;51.052;9.850;2024-02-21T08:50:59;98929.48;;;7.90;74.89
77323;BME280;66384;51.052;9.850;2024-02-21T08:53:33;98926.69;;;7.93;75.07
77323;BME280;66384;51.052;9.850;2024-02-21T08:56:11;98927.14;;;7.96;75.25
77323;BME280;66384;51.052;9.850;2024-02-21T08:58:44;98935.05;;;8.01;75.15
77323;BME280;66384;51.052;9.850;2024-02-21T09:01:21;98934.02;;;8.05;74.92
77323;BME280;66384;51.052;9.850;2024-02-21T09:03:58;98925.70;;;8.07;74.54
77323;BME280;66384;51.052;9.850;2024-02-21T09:06:36;98921.44;;;8.07;74.53
77323;BME280;66384;51.052;9.850;2024-02-21T09:09:16;98923.75;;;8.10;74.02
77323;BME280;66384;51.052;9.850;2024-02-21T09:11:53;98919.11;;;8.09;74.07
77323;BME280;66384;51.052;9.850;2024-02-21T09:14:31;98916.20;;;8.09;73.77
77323;BME280;66384;51.052;9.850;2024-02-21T09:17:08;98910.73;;;8.10;73.71
77323;BME280;66384;51.052;9.850;2024-02-21T09:19:46;98907.52;;;8.10;73.72
77323;BME280;66384;51.052;9.850;2024-02-21T09:22:23;98901.66;;;8.14;73.30
77323;BME280;66384;51.052;9.850;2024-02-21T09:25:00;98895.51;;;8.14;72.45
77323;BME280;66384;51.052;9.850;2024-02-21T09:27:38;98893.83;;;8.15;72.90
77323;BME280;66384;51.052;9.850;2024-02-21T09:30:15;98894.17;;;8.20;72.60
77323;BME280;66384;51.052;9.850;2024-02-21T09:32:53;98886.33;;;8.21;71.78
77323;BME280;66384;51.052;9.850;2024-02-21T09:35:32;98884.77;;;8.25;72.31
77323;BME280;66384;51.052;9.850;2024-02-21T09:38:10;98880.66;;;8.29;72.16
77323;BME280;66384;51.052;9.850;2024-02-21T09:40:47;98877.91;;;8.33;72.40
77323;BME280;66384;51.052;9.850;2024-02-21T09:43:28;98873.91;;;8.37;71.82
77323;BME280;66384;51.052;9.850;2024-02-21T09:46:05;98872.83;;;8.39;71.26
77323;BME280;66384;51.052;9.850;2024-02-21T09:48:57;98872.27;;;8.38;71.34
77323;BME280;66384;51.052;9.850;2024-02-21T09:51:39;98872.43;;;8.42;71.84
77323;BME280;66384;51.052;9.850;2024-02-21T09:54:16;98877.70;;;8.46;71.05
77323;BME280;66384;51.052;9.850;2024-02-21T09:56:54;98868.94;;;8.45;71.32
77323;BME280;66384;51.052;9.850;2024-02-21T09:59:32;98872.36;;;8.45;71.37
77323;BME280;66384;51.052;9.850;2024-02-21T10:02:09;98865.25;;;8.38;71.06
77323;BME280;66384;51.052;9.850;2024-02-21T10:04:43;98870.10;;;8.31;71.55
77323;BME280;66384;51.052;9.850;2024-02-21T10:07:21;98869.12;;;8.28;71.85
77323;BME280;66384;51.052;9.850;2024-02-21T10:10:06;98872.55;;;8.24;72.09
77323;BME280;66384;51.052;9.850;2024-02-21T10:12:53;98873.77;;;8.19;71.82
77323;BME280;66384;51.052;9.850;2024-02-21T10:15:32;98871.61;;;8.16;72.09
77323;BME280;66384;51.052;9.850;2024-02-21T10:18:06;98867.52;;;8.13;71.96
77323;BME280;66384;51.052;9.850;2024-02-21T10:20:43;98866.60;;;8.11;72.13
77323;BME280;66384;51.052;9.850;2024-02-21T10:23:20;98869.15;;;8.11;72.29
77323;BME280;66384;51.052;9.850;2024-02-21T10:26:07;98869.13;;;8.10;72.00
77323;BME280;66384;51.052;9.850;2024-02-21T10:28:45;98871.50;;;8.09;72.27
77323;BME280;66384;51.052;9.850;2024-02-21T10:31:25;98861.55;;;8.09;72.00
77323;BME280;66384;51.052;9.850;2024-02-21T10:34:03;98856.89;;;8.08;72.25
77323;BME280;66384;51.052;9.850;2024-02-21T10:36:40;98851.79;;;8.09;72.26
77323;BME280;66384;51.052;9.850;2024-02-21T10:39:16;98842.73;;;8.10;72.28
77323;BME280;66384;51.052;9.850;2024-02-21T10:41:54;98834.68;;;8.14;72.17
77323;BME280;66384;51.052;9.850;2024-02-21T10:44:34;98832.29;;;8.18;72.22
77323;BME280;66384;51.052;9.850;2024-02-21T10:47:13;98831.69;;;8.26;72.02
77323;BME280;66384;51.052;9.850;2024-02-21T10:50:06;98822.48;;;8.32;72.07
77323;BME280;66384;51.052;9.850;2024-02-21T10:52:51;98822.92;;;8.38;71.66
77323;BME280;66384;51.052;9.850;2024-02-21T10:55:38;98820.52;;;8.38;70.70
77323;BME280;66384;51.052;9.850;2024-02-21T10:58:18;98826.58;;;8.36;70.71
77323;BME280;66384;51.052;9.850;2024-02-21T11:00:55;98821.02;;;8.38;70.94
77323;BME280;66384;51.052;9.850;2024-02-21T11:03:32;98823.20;;;8.41;70.18
77323;BME280;66384;51.052;9.850;2024-02-21T11:06:06;98814.46;;;8.41;70.49
77323;BME280;66384;51.052;9.850;2024-02-21T11:08:44;98807.85;;;8.43;70.31
77323;BME280;66384;51.052;9.850;2024-02-21T11:11:21;98797.62;;;8.44;69.51
77323;BME280;66384;51.052;9.850;2024-02-21T11:14:18;98786.92;;;8.47;69.73
77323;BME280;66384;51.052;9.850;2024-02-21T11:16:55;98778.34;;;8.51;69.93
77323;BME280;66384;51.052;9.850;2024-02-21T11:19:32;98765.70;;;8.57;69.89
77323;BME280;66384;51.052;9.850;2024-02-21T11:22:17;98758.42;;;8.65;69.58
77323;BME280;66384;51.052;9.850;2024-02-21T11:25:05;98756.98;;;8.73;69.60
77323;BME280;66384;51.052;9.850;2024-02-21T11:27:48;98754.63;;;8.80;69.32
77323;BME280;66384;51.052;9.850;2024-02-21T11:30:32;98750.79;;;8.88;69.53
77323;BME280;66384;51.052;9.850;2024-02-21T11:33:14;98745.10;;;8.98;69.48
77323;BME280;66384;51.052;9.850;2024-02-21T11:35:53;98742.83;;;9.06;69.00
77323;BME280;66384;51.052;9.850;2024-02-21T11:38:30;98740.26;;;9.11;68.88
77323;BME280;66384;51.052;9.850;2024-02-21T11:41:10;98737.94;;;9.20;68.63
77323;BME280;66384;51.052;9.850;2024-02-21T11:43:49;98736.46;;;9.27;67.72
77323;BME280;66384;51.052;9.850;2024-02-21T11:46:27;98726.77;;;9.30;67.15
77323;BME280;66384;51.052;9.850;2024-02-21T11:49:03;98716.35;;;9.32;66.93
77323;BME280;66384;51.052;9.850;2024-02-21T11:51:40;98709.73;;;9.34;66.68
77323;BME280;66384;51.052;9.850;2024-02-21T11:54:17;98707.70;;;9.35;66.06
77323;BME280;66384;51.052;9.850;2024-02-21T11:56:54;98698.85;;;9.37;66.24
77323;BME280;66384;51.052;9.850;2024-02-21T11:59:32;98688.96;;;9.40;66.18
77323;BME280;66384;51.052;9.850;2024-02-21T12:02:11;98684.30;;;9.44;65.56
77323;BME280;66384;51.052;9.850;2024-02-21T12:04:51;98666.63;;;9.44;65.40
77323;BME280;66384;51.052;9.850;2024-02-21T12:07:31;98669.12;;;9.42;65.04
77323;BME280;66384;51.052;9.850;2024-02-21T12:10:11;98665.69;;;9.42;65.57
77323;BME280;66384;51.052;9.850;2024-02-21T12:12:47;98653.25;;;9.45;65.89
77323;BME280;66384;51.052;9.850;2024-02-21T12:15:25;98650.96;;;9.49;65.22
77323;BME280;66384;51.052;9.850;2024-02-21T12:18:02;98645.96;;;9.48;64.84
77323;BME280;66384;51.052;9.850;2024-02-21T12:20:39;98640.46;;;9.47;65.07
77323;BME280;66384;51.052;9.850;2024-02-21T12:23:17;98637.08;;;9.49;65.31
77323;BME280;66384;51.052;9.850;2024-02-21T12:25:54;98634.96;;;9.53;65.70
77323;BME280;66384;51.052;9.850;2024-02-21T12:28:31;98629.33;;;9.61;65.71
77323;BME280;66384;51.052;9.850;2024-02-21T12:31:07;98626.52;;;9.71;65.31
77323;BME280;66384;51.052;9.850;2024-02-21T12:33:44;98617.52;;;9.75;64.90
77323;BME280;66384;51.052;9.850;2024-02-21T12:36:22;98614.98;;;9.75;64.83
77323;BME280;66384;51.052;9.850;2024-02-21T12:38:59;98615.48;;;9.75;64.81
77323;BME280;66384;51.052;9.850;2024-02-21T12:41:37;98609.02;;;9.77;64.65
77323;BME280;66384;51.052;9.850;2024-02-21T12:44:14;98602.88;;;9.78;64.44
77323;BME280;66384;51.052;9.850;2024-02-21T12:46:51;98596.72;;;9.80;64.94
77323;BME280;66384;51.052;9.850;2024-02-21T12:49:28;98590.92;;;9.81;64.44
77323;BME280;66384;51.052;9.850;2024-02-21T12:52:06;98590.05;;;9.81;64.41
77323;BME280;66384;51.052;9.850;2024-02-21T12:54:43;98591.05;;;9.80;64.40
77323;BME280;66384;51.052;9.850;2024-02-21T12:57:20;98584.45;;;9.77;64.35
77323;BME280;66384;51.052;9.850;2024-02-21T13:00:00;98578.94;;;9.76;64.57
77323;BME280;66384;51.052;9.850;2024-02-21T13:02:37;98578.44;;;9.77;64.29
77323;BME280;66384;51.052;9.850;2024-02-21T13:05:13;98578.46;;;9.77;64.23
77323;BME280;66384;51.052;9.850;2024-02-21T13:07:50;98580.43;;;9.74;64.25
77323;BME280;66384;51.052;9.850;2024-02-21T13:10:28;98577.00;;;9.74;64.24
77323;BME280;66384;51.052;9.850;2024-02-21T13:13:04;98577.01;;;9.75;64.50
77323;BME280;66384;51.052;9.850;2024-02-21T13:15:41;98577.55;;;9.76;64.04
77323;BME280;66384;51.052;9.850;2024-02-21T13:18:18;98576.77;;;9.72;63.84
77323;BME280;66384;51.052;9.850;2024-02-21T13:20:55;98572.52;;;9.67;63.77
77323;BME280;66384;51.052;9.850;2024-02-21T13:23:31;98573.59;;;9.63;64.15
77323;BME280;66384;51.052;9.850;2024-02-21T13:26:08;98567.52;;;9.61;64.26
77323;BME280;66384;51.052;9.850;2024-02-21T13:28:46;98564.83;;;9.57;63.93
77323;BME280;66384;51.052;9.850;2024-02-21T13:31:23;98560.63;;;9.53;64.42
77323;BME280;66384;51.052;9.850;2024-02-21T13:33:59;98554.58;;;9.52;64.54
77323;BME280;66384;51.052;9.850;2024-02-21T13:36:37;98552.14;;;9.51;64.56
77323;BME280;66384;51.052;9.850;2024-02-21T13:39:13;98546.08;;;9.49;64.57
77323;BME280;66384;51.052;9.850;2024-02-21T13:41:52;98544.33;;;9.48;64.69
77323;BME280;66384;51.052;9.850;2024-02-21T13:44:28;98531.61;;;9.47;64.51
77323;BME280;66384;51.052;9.850;2024-02-21T13:47:05;98523.83;;;9.45;64.72
77323;BME280;66384;51.052;9.850;2024-02-21T13:49:42;98514.19;;;9.44;64.90
77323;BME280;66384;51.052;9.850;2024-02-21T13:52:18;98507.69;;;9.45;65.26
77323;BME280;66384;51.052;9.850;2024-02-21T13:54:55;98499.44;;;9.45;64.62
77323;BME280;66384;51.052;9.850;2024-02-21T13:57:32;98499.73;;;9.43;64.31
77323;BME280;66384;51.052;9.850;2024-02-21T14:00:10;98500.48;;;9.40;64.38
77323;BME280;66384;51.052;9.850;2024-02-21T14:02:47;98492.11;;;9.34;64.47
77323;BME280;66384;51.052;9.850;2024-02-21T14:05:24;98498.24;;;9.32;65.01
77323;BME280;66384;51.052;9.850;2024-02-21T14:08:01;98490.23;;;9.28;64.78
77323;BME280;66384;51.052;9.850;2024-02-21T14:10:39;98488.13;;;9.27;65.04